sensor_id;sensor_type;location;lat;lon;timestamp;temperature;humidity
6375;DHT22;35400;45.472;-122.822;2023-04-24T00:01:27;13.50;99.90
6375;DHT22;35400;45.472;-122.822;2023-04-24T00:03:56;13.50;99.90
6375;DHT22;35400;45.472;-122.822;2023-04-24T00:06:26;13.40;99.90
6375;DHT22;35400;45.472;-122.822;2023-04-24T00:09:15;13.30;99.90
6375;DHT22;35400;45.472;-122.822;2023-04-24T00:11:42;13.30;99.90
6375;DHT22;35400;45.472;-122.822;2023-04-24T00:14:09;13.20;99.90
6375;DHT22;35400;45.472;-122.822;2023-04-24T00:16:36;13.20;99.90
6375;DHT22;35400;45.472;-122.822;2023-04-24T00:19:02;13.10;99.90
6375;DHT22;35400;45.472;-122.822;2023-04-24T00:21:29;13.10;99.90
6375;DHT22;35400;45.472;-122.822;2023-04-24T00:23:56;13.00;99.90
6375;DHT22;35400;45.472;-122.822;2023-04-24T00:26:23;13.00;99.90
6375;DHT22;35400;45.472;-122.822;2023-04-24T00:28:50;13.00;99.90
6375;DHT22;35400;45.472;-122.822;2023-04-24T00:31:16;12.90;99.90
6375;DHT22;35400;45.472;-122.822;2023-04-24T00:33:43;12.90;99.90
6375;DHT22;35400;45.472;-122.822;2023-04-24T00:36:10;12.90;99.90
6375;DHT22;35400;45.472;-122.822;2023-04-24T00:38:37;12.80;99.90
6375;DHT22;35400;45.472;-122.822;2023-04-24T00:41:04;12.80;99.90
6375;DHT22;35400;45.472;-122.822;2023-04-24T00:43:31;12.80;99.90
6375;DHT22;35400;45.472;-122.822;2023-04-24T00:45:58;12.80;99.90
6375;DHT22;35400;45.472;-122.822;2023-04-24T00:48:26;12.80;99.90
6375;DHT22;35400;45.472;-122.822;2023-04-24T00:50:53;12.80;99.90
6375;DHT22;35400;45.472;-122.822;2023-04-24T00:53:20;12.80;99.90
6375;DHT22;35400;45.472;-122.822;2023-04-24T00:55:47;12.80;99.90
6375;DHT22;35400;45.472;-122.822;2023-04-24T00:58:14;12.80;99.90
6375;DHT22;35400;45.472;-122.822;2023-04-24T01:00:41;12.80;99.90
6375;DHT22;35400;45.472;-122.822;2023-04-24T01:03:08;12.70;99.90
6375;DHT22;35400;45.472;-122.822;2023-04-24T01:05:37;12.70;99.90
6375;DHT22;35400;45.472;-122.822;2023-04-24T01:08:04;12.70;99.90
6375;DHT22;35400;45.472;-122.822;2023-04-24T01:10:31;12.70;99.90
6375;DHT22;35400;45.472;-122.822;2023-04-24T01:12:59;12.60;99.90
6375;DHT22;35400;45.472;-122.822;2023-04-24T01:15:26;12.60;99.90
6375;DHT22;35400;45.472;-122.822;2023-04-24T01:17:53;12.60;99.90
6375;DHT22;35400;45.472;-122.822;2023-04-24T01:20:21;12.60;99.90
6375;DHT22;35400;45.472;-122.822;2023-04-24T01:22:48;12.50;99.90
6375;DHT22;35400;45.472;-122.822;2023-04-24T01:25:15;12.50;99.90
6375;DHT22;35400;45.472;-122.822;2023-04-24T01:27:42;12.50;99.90
6375;DHT22;35400;45.472;-122.822;2023-04-24T01:30:09;12.50;99.90
6375;DHT22;35400;45.472;-122.822;2023-04-24T01:32:37;12.40;99.90
6375;DHT22;35400;45.472;-122.822;2023-04-24T01:35:04;12.40;99.90
6375;DHT22;35400;45.472;-122.822;2023-04-24T01:37:31;12.30;99.90
6375;DHT22;35400;45.472;-122.822;2023-04-24T01:39:59;12.30;99.90
6375;DHT22;35400;45.472;-122.822;2023-04-24T01:42:26;12.20;99.90
6375;DHT22;35400;45.472;-122.822;2023-04-24T01:44:53;12.20;99.90
6375;DHT22;35400;45.472;-122.822;2023-04-24T01:47:21;12.10;99.90
6375;DHT22;35400;45.472;-122.822;2023-04-24T01:49:48;12.10;99.90
6375;DHT22;35400;45.472;-122.822;2023-04-24T01:52:16;12.00;99.90
6375;DHT22;35400;45.472;-122.822;2023-04-24T01:54:45;12.00;99.90
6375;DHT22;35400;45.472;-122.822;2023-04-24T01:57:11;12.00;99.90
6375;DHT22;35400;45.472;-122.822;2023-04-24T01:59:38;11.90;99.90
6375;DHT22;35400;45.472;-122.822;2023-04-24T02:02:05;11.90;99.90
6375;DHT22;35400;45.472;-122.822;2023-04-24T02:04:32;11.90;99.90
6375;DHT22;35400;45.472;-122.822;2023-04-24T02:06:59;11.80;99.90
6375;DHT22;35400;45.472;-122.822;2023-04-24T02:09:26;11.80;99.90
6375;DHT22;35400;45.472;-122.822;2023-04-24T02:11:53;11.80;99.90
6375;DHT22;35400;45.472;-122.822;2023-04-24T02:14:19;11.70;99.90
6375;DHT22;35400;45.472;-122.822;2023-04-24T02:16:46;11.70;99.90
6375;DHT22;35400;45.472;-122.822;2023-04-24T02:19:13;11.60;99.90
6375;DHT22;35400;45.472;-122.822;2023-04-24T02:21:41;11.60;99.90
6375;DHT22;35400;45.472;-122.822;2023-04-24T02:24:08;11.50;99.90
6375;DHT22;35400;45.472;-122.822;2023-04-24T02:26:35;11.50;99.90
6375;DHT22;35400;45.472;-122.822;2023-04-24T02:29:02;11.50;99.90
6375;DHT22;35400;45.472;-122.822;2023-04-24T02:31:29;11.40;99.90
6375;DHT22;35400;45.472;-122.822;2023-04-24T02:33:56;11.40;99.90
6375;DHT22;35400;45.472;-122.822;2023-04-24T02:36:22;11.30;99.90
6375;DHT22;35400;45.472;-122.822;2023-04-24T02:38:49;11.30;99.90
6375;DHT22;35400;45.472;-122.822;2023-04-24T02:41:16;11.30;99.90
6375;DHT22;35400;45.472;-122.822;2023-04-24T02:43:43;11.20;99.90
6375;DHT22;35400;45.472;-122.822;2023-04-24T02:46:10;11.20;99.90
6375;DHT22;35400;45.472;-122.822;2023-04-24T02:48:36;11.20;99.90
6375;DHT22;35400;45.472;-122.822;2023-04-24T02:51:04;11.10;99.90
6375;DHT22;35400;45.472;-122.822;2023-04-24T02:53:32;11.10;99.90
6375;DHT22;35400;45.472;-122.822;2023-04-24T02:55:59;11.10;99.90
6375;DHT22;35400;45.472;-122.822;2023-04-24T02:58:26;11.00;99.90
6375;DHT22;35400;45.472;-122.822;2023-04-24T03:00:54;11.00;99.90
6375;DHT22;35400;45.472;-122.822;2023-04-24T03:03:24;11.00;99.90
6375;DHT22;35400;45.472;-122.822;2023-04-24T03:05:52;10.90;99.90
6375;DHT22;35400;45.472;-122.822;2023-04-24T03:08:19;10.90;99.90
6375;DHT22;35400;45.472;-122.822;2023-04-24T03:10:46;10.90;99.90
6375;DHT22;35400;45.472;-122.822;2023-04-24T03:13:16;10.80;99.90
6375;DHT22;35400;45.472;-122.822;2023-04-24T03:15:43;10.80;99.90
6375;DHT22;35400;45.472;-122.822;2023-04-24T03:18:11;10.80;99.90
6375;DHT22;35400;45.472;-122.822;2023-04-24T03:20:38;10.70;99.90
6375;DHT22;35400;45.472;-122.822;2023-04-24T03:23:05;10.70;99.90
6375;DHT22;35400;45.472;-122.822;2023-04-24T03:25:32;10.70;99.90
6375;DHT22;35400;45.472;-122.822;2023-04-24T03:27:59;10.70;99.90
6375;DHT22;35400;45.472;-122.822;2023-04-24T03:30:36;10.60;99.90
6375;DHT22;35400;45.472;-122.822;2023-04-24T03:33:04;10.60;99.90
6375;DHT22;35400;45.472;-122.822;2023-04-24T03:35:35;10.60;99.90
6375;DHT22;35400;45.472;-122.822;2023-04-24T03:38:07;10.50;99.90
6375;DHT22;35400;45.472;-122.822;2023-04-24T03:40:55;10.50;99.90
6375;DHT22;35400;45.472;-122.822;2023-04-24T03:43:39;10.50;99.90
6375;DHT22;35400;45.472;-122.822;2023-04-24T03:46:06;10.50;99.90
6375;DHT22;35400;45.472;-122.822;2023-04-24T03:48:39;10.40;99.90
6375;DHT22;35400;45.472;-122.822;2023-04-24T03:51:08;10.40;99.90
6375;DHT22;35400;45.472;-122.822;2023-04-24T03:53:37;10.40;99.90
6375;DHT22;35400;45.472;-122.822;2023-04-24T03:56:04;10.40;99.90
6375;DHT22;35400;45.472;-122.822;2023-04-24T03:58:33;10.40;99.90
6375;DHT22;35400;45.472;-122.822;2023-04-24T04:01:00;10.30;99.90
6375;DHT22;35400;45.472;-122.822;2023-04-24T04:03:59;10.30;99.90
6375;DHT22;35400;45.472;-122.822;2023-04-24T04:06:27;10.30;99.90
6375;DHT22;35400;45.472;-122.822;2023-04-24T04:08:56;10.30;99.90
6375;DHT22;35400;45.472;-122.822;2023-04-24T04:11:24;10.30;99.90
6375;DHT22;35400;45.472;-122.822;2023-04-24T04:13:51;10.30;99.90
6375;DHT22;35400;45.472;-122.822;2023-04-24T04:16:20;10.30;99.90
6375;DHT22;35400;45.472;-122.822;2023-04-24T04:18:50;10.20;99.90
6375;DHT22;35400;45.472;-122.822;2023-04-24T04:21:17;10.20;99.90
6375;DHT22;35400;45.472;-122.822;2023-04-24T04:23:44;10.20;99.90
6375;DHT22;35400;45.472;-122.822;2023-04-24T04:26:20;10.20;99.90
6375;DHT22;35400;45.472;-122.822;2023-04-24T04:28:59;10.20;99.90
6375;DHT22;35400;45.472;-122.822;2023-04-24T04:31:30;10.20;99.90
6375;DHT22;35400;45.472;-122.822;2023-04-24T04:34:01;10.10;99.90
6375;DHT22;35400;45.472;-122.822;2023-04-24T04:36:29;10.10;99.90
6375;DHT22;35400;45.472;-122.822;2023-04-24T04:39:06;10.10;99.90
6375;DHT22;35400;45.472;-122.822;2023-04-24T04:41:45;10.10;99.90
6375;DHT22;35400;45.472;-122.822;2023-04-24T04:44:16;10.10;99.90
6375;DHT22;35400;45.472;-122.822;2023-04-24T04:46:43;10.00;99.90
6375;DHT22;35400;45.472;-122.822;2023-04-24T04:49:21;10.00;99.90
6375;DHT22;35400;45.472;-122.822;2023-04-24T04:51:50;10.00;99.90
6375;DHT22;35400;45.472;-122.822;2023-04-24T04:54:18;10.00;99.90
6375;DHT22;35400;45.472;-122.822;2023-04-24T04:56:45;9.90;99.90
6375;DHT22;35400;45.472;-122.822;2023-04-24T04:59:12;9.90;99.90
6375;DHT22;35400;45.472;-122.822;2023-04-24T05:01:39;9.90;99.90
6375;DHT22;35400;45.472;-122.822;2023-04-24T05:04:08;9.80;99.90
6375;DHT22;35400;45.472;-122.822;2023-04-24T05:06:36;9.80;99.90
6375;DHT22;35400;45.472;-122.822;2023-04-24T05:09:05;9.80;99.90
6375;DHT22;35400;45.472;-122.822;2023-04-24T05:11:55;9.80;99.90
6375;DHT22;35400;45.472;-122.822;2023-04-24T05:14:24;9.70;99.90
6375;DHT22;35400;45.472;-122.822;2023-04-24T05:16:51;9.60;99.90
6375;DHT22;35400;45.472;-122.822;2023-04-24T05:19:20;9.70;99.90
6375;DHT22;35400;45.472;-122.822;2023-04-24T05:21:47;9.60;99.90
6375;DHT22;35400;45.472;-122.822;2023-04-24T05:24:14;9.60;99.90
6375;DHT22;35400;45.472;-122.822;2023-04-24T05:26:52;9.60;99.90
6375;DHT22;35400;45.472;-122.822;2023-04-24T05:29:24;9.60;99.90
6375;DHT22;35400;45.472;-122.822;2023-04-24T05:31:53;9.50;99.90
6375;DHT22;35400;45.472;-122.822;2023-04-24T05:34:20;9.50;99.90
6375;DHT22;35400;45.472;-122.822;2023-04-24T05:36:52;9.50;99.90
6375;DHT22;35400;45.472;-122.822;2023-04-24T05:39:19;9.50;99.90
6375;DHT22;35400;45.472;-122.822;2023-04-24T05:41:46;9.50;99.90
6375;DHT22;35400;45.472;-122.822;2023-04-24T05:44:13;9.50;99.90
6375;DHT22;35400;45.472;-122.822;2023-04-24T05:46:41;9.50;99.90
6375;DHT22;35400;45.472;-122.822;2023-04-24T05:49:10;9.40;99.90
6375;DHT22;35400;45.472;-122.822;2023-04-24T05:51:37;9.40;99.90
6375;DHT22;35400;45.472;-122.822;2023-04-24T05:54:06;9.40;99.90
6375;DHT22;35400;45.472;-122.822;2023-04-24T05:56:33;9.40;99.90
6375;DHT22;35400;45.472;-122.822;2023-04-24T05:59:02;9.40;99.90
6375;DHT22;35400;45.472;-122.822;2023-04-24T06:01:30;9.40;99.90
6375;DHT22;35400;45.472;-122.822;2023-04-24T06:04:06;9.30;99.90
6375;DHT22;35400;45.472;-122.822;2023-04-24T06:06:34;9.30;99.90
6375;DHT22;35400;45.472;-122.822;2023-04-24T06:09:01;9.30;99.90
6375;DHT22;35400;45.472;-122.822;2023-04-24T06:11:29;9.30;99.90
6375;DHT22;35400;45.472;-122.822;2023-04-24T06:13:56;9.30;99.90
6375;DHT22;35400;45.472;-122.822;2023-04-24T06:16:55;9.30;99.90
6375;DHT22;35400;45.472;-122.822;2023-04-24T06:19:32;9.20;99.90
6375;DHT22;35400;45.472;-122.822;2023-04-24T06:21:59;9.20;99.90
6375;DHT22;35400;45.472;-122.822;2023-04-24T06:24:29;9.20;99.90
6375;DHT22;35400;45.472;-122.822;2023-04-24T06:26:58;9.20;99.90
6375;DHT22;35400;45.472;-122.822;2023-04-24T06:29:26;9.20;99.90
6375;DHT22;35400;45.472;-122.822;2023-04-24T06:31:53;9.20;99.90
6375;DHT22;35400;45.472;-122.822;2023-04-24T06:34:20;9.10;99.90
6375;DHT22;35400;45.472;-122.822;2023-04-24T06:36:47;9.10;99.90
6375;DHT22;35400;45.472;-122.822;2023-04-24T06:39:14;9.10;99.90
6375;DHT22;35400;45.472;-122.822;2023-04-24T06:41:41;9.10;99.90
6375;DHT22;35400;45.472;-122.822;2023-04-24T06:44:16;9.10;99.90
6375;DHT22;35400;45.472;-122.822;2023-04-24T06:46:43;9.10;99.90
6375;DHT22;35400;45.472;-122.822;2023-04-24T06:49:10;9.00;99.90
6375;DHT22;35400;45.472;-122.822;2023-04-24T06:51:37;9.00;99.90
6375;DHT22;35400;45.472;-122.822;2023-04-24T06:54:04;9.00;99.90
6375;DHT22;35400;45.472;-122.822;2023-04-24T06:56:31;9.00;99.90
6375;DHT22;35400;45.472;-122.822;2023-04-24T06:58:58;9.00;99.90
6375;DHT22;35400;45.472;-122.822;2023-04-24T07:01:25;9.00;99.90
6375;DHT22;35400;45.472;-122.822;2023-04-24T07:03:52;8.90;99.90
6375;DHT22;35400;45.472;-122.822;2023-04-24T07:06:18;9.00;99.90
6375;DHT22;35400;45.472;-122.822;2023-04-24T07:08:48;8.90;99.90
6375;DHT22;35400;45.472;-122.822;2023-04-24T07:11:16;8.90;99.90
6375;DHT22;35400;45.472;-122.822;2023-04-24T07:13:42;8.90;99.90
6375;DHT22;35400;45.472;-122.822;2023-04-24T07:16:10;8.90;99.90
6375;DHT22;35400;45.472;-122.822;2023-04-24T07:18:37;8.90;99.90
6375;DHT22;35400;45.472;-122.822;2023-04-24T07:21:06;8.90;99.90
6375;DHT22;35400;45.472;-122.822;2023-04-24T07:23:33;8.90;99.90
6375;DHT22;35400;45.472;-122.822;2023-04-24T07:26:00;8.90;99.90
6375;DHT22;35400;45.472;-122.822;2023-04-24T07:28:27;8.90;99.90
6375;DHT22;35400;45.472;-122.822;2023-04-24T07:30:57;8.90;99.90
6375;DHT22;35400;45.472;-122.822;2023-04-24T07:33:25;8.90;99.90
6375;DHT22;35400;45.472;-122.822;2023-04-24T07:35:52;8.90;99.90
6375;DHT22;35400;45.472;-122.822;2023-04-24T07:38:19;8.80;99.90
6375;DHT22;35400;45.472;-122.822;2023-04-24T07:40:49;8.80;99.90
6375;DHT22;35400;45.472;-122.822;2023-04-24T07:43:16;8.80;99.90
6375;DHT22;35400;45.472;-122.822;2023-04-24T07:45:43;8.80;99.90
6375;DHT22;35400;45.472;-122.822;2023-04-24T07:48:10;8.80;99.90
6375;DHT22;35400;45.472;-122.822;2023-04-24T07:50:37;8.70;99.90
6375;DHT22;35400;45.472;-122.822;2023-04-24T07:53:04;8.70;99.90
6375;DHT22;35400;45.472;-122.822;2023-04-24T07:55:31;8.70;99.90
6375;DHT22;35400;45.472;-122.822;2023-04-24T07:57:58;8.70;99.90
6375;DHT22;35400;45.472;-122.822;2023-04-24T08:00:25;8.70;99.90
6375;DHT22;35400;45.472;-122.822;2023-04-24T08:02:52;8.70;99.90
6375;DHT22;35400;45.472;-122.822;2023-04-24T08:05:19;8.60;99.90
6375;DHT22;35400;45.472;-122.822;2023-04-24T08:07:46;8.60;99.90
6375;DHT22;35400;45.472;-122.822;2023-04-24T08:10:15;8.60;99.90
6375;DHT22;35400;45.472;-122.822;2023-04-24T08:12:42;8.60;99.90
6375;DHT22;35400;45.472;-122.822;2023-04-24T08:15:09;8.60;99.90
6375;DHT22;35400;45.472;-122.822;2023-04-24T08:17:36;8.60;99.90
6375;DHT22;35400;45.472;-122.822;2023-04-24T08:20:04;8.50;99.90
6375;DHT22;35400;45.472;-122.822;2023-04-24T08:22:31;8.50;99.90
6375;DHT22;35400;45.472;-122.822;2023-04-24T08:24:59;8.50;99.90
6375;DHT22;35400;45.472;-122.822;2023-04-24T08:27:27;8.50;99.90
6375;DHT22;35400;45.472;-122.822;2023-04-24T08:29:54;8.50;99.90
6375;DHT22;35400;45.472;-122.822;2023-04-24T08:32:21;8.50;99.90
6375;DHT22;35400;45.472;-122.822;2023-04-24T08:34:48;8.50;99.90
6375;DHT22;35400;45.472;-122.822;2023-04-24T08:37:15;8.50;99.90
6375;DHT22;35400;45.472;-122.822;2023-04-24T08:39:41;8.50;99.90
6375;DHT22;35400;45.472;-122.822;2023-04-24T08:42:08;8.50;99.90
6375;DHT22;35400;45.472;-122.822;2023-04-24T08:44:36;8.50;99.90
6375;DHT22;35400;45.472;-122.822;2023-04-24T08:47:03;8.50;99.90
6375;DHT22;35400;45.472;-122.822;2023-04-24T08:49:31;8.50;99.90
6375;DHT22;35400;45.472;-122.822;2023-04-24T08:51:58;8.50;99.90
6375;DHT22;35400;45.472;-122.822;2023-04-24T08:54:28;8.50;99.90
6375;DHT22;35400;45.472;-122.822;2023-04-24T08:56:59;8.40;99.90
6375;DHT22;35400;45.472;-122.822;2023-04-24T08:59:30;8.40;99.90
6375;DHT22;35400;45.472;-122.822;2023-04-24T09:01:58;8.40;99.90
6375;DHT22;35400;45.472;-122.822;2023-04-24T09:04:25;8.40;99.90
6375;DHT22;35400;45.472;-122.822;2023-04-24T09:06:56;8.40;99.90
6375;DHT22;35400;45.472;-122.822;2023-04-24T09:09:26;8.40;99.90
6375;DHT22;35400;45.472;-122.822;2023-04-24T09:11:56;8.30;99.90
6375;DHT22;35400;45.472;-122.822;2023-04-24T09:14:24;8.30;99.90
6375;DHT22;35400;45.472;-122.822;2023-04-24T09:16:52;8.30;99.90
6375;DHT22;35400;45.472;-122.822;2023-04-24T09:19:18;8.30;99.90
6375;DHT22;35400;45.472;-122.822;2023-04-24T09:21:47;8.30;99.90
6375;DHT22;35400;45.472;-122.822;2023-04-24T09:24:19;8.30;99.90
6375;DHT22;35400;45.472;-122.822;2023-04-24T09:26:55;8.30;99.90
6375;DHT22;35400;45.472;-122.822;2023-04-24T09:29:24;8.30;99.90
6375;DHT22;35400;45.472;-122.822;2023-04-24T09:31:51;8.30;99.90
6375;DHT22;35400;45.472;-122.822;2023-04-24T09:34:25;8.30;99.90
6375;DHT22;35400;45.472;-122.822;2023-04-24T09:36:53;8.30;99.90
6375;DHT22;35400;45.472;-122.822;2023-04-24T09:39:21;8.30;99.90
6375;DHT22;35400;45.472;-122.822;2023-04-24T09:41:49;8.30;99.90
6375;DHT22;35400;45.472;-122.822;2023-04-24T09:44:18;8.30;99.90
6375;DHT22;35400;45.472;-122.822;2023-04-24T09:46:57;8.30;99.90
6375;DHT22;35400;45.472;-122.822;2023-04-24T09:49:26;8.30;99.90
6375;DHT22;35400;45.472;-122.822;2023-04-24T09:52:06;8.30;99.90
6375;DHT22;35400;45.472;-122.822;2023-04-24T09:54:33;8.30;99.90
6375;DHT22;35400;45.472;-122.822;2023-04-24T09:57:03;8.30;99.90
6375;DHT22;35400;45.472;-122.822;2023-04-24T09:59:30;8.30;99.90
6375;DHT22;35400;45.472;-122.822;2023-04-24T10:01:57;8.30;99.90
6375;DHT22;35400;45.472;-122.822;2023-04-24T10:04:26;8.30;99.90
6375;DHT22;35400;45.472;-122.822;2023-04-24T10:06:55;8.30;99.90
6375;DHT22;35400;45.472;-122.822;2023-04-24T10:09:24;8.30;99.90
6375;DHT22;35400;45.472;-122.822;2023-04-24T10:11:52;8.30;99.90
6375;DHT22;35400;45.472;-122.822;2023-04-24T10:14:22;8.30;99.90
6375;DHT22;35400;45.472;-122.822;2023-04-24T10:16:50;8.30;99.90
6375;DHT22;35400;45.472;-122.822;2023-04-24T10:19:17;8.30;99.90
6375;DHT22;35400;45.472;-122.822;2023-04-24T10:21:47;8.30;99.90
6375;DHT22;35400;45.472;-122.822;2023-04-24T10:24:15;8.30;99.90
6375;DHT22;35400;45.472;-122.822;2023-04-24T10:26:43;8.30;99.90
6375;DHT22;35400;45.472;-122.822;2023-04-24T10:29:12;8.30;99.90
6375;DHT22;35400;45.472;-122.822;2023-04-24T10:31:40;8.30;99.90
6375;DHT22;35400;45.472;-122.822;2023-04-24T10:34:08;8.30;99.90
6375;DHT22;35400;45.472;-122.822;2023-04-24T10:36:39;8.30;99.90
6375;DHT22;35400;45.472;-122.822;2023-04-24T10:39:09;8.30;99.90
6375;DHT22;35400;45.472;-122.822;2023-04-24T10:41:38;8.30;99.90
6375;DHT22;35400;45.472;-122.822;2023-04-24T10:44:10;8.30;99.90
6375;DHT22;35400;45.472;-122.822;2023-04-24T10:46:38;8.30;99.90
6375;DHT22;35400;45.472;-122.822;2023-04-24T10:49:06;8.30;99.90
6375;DHT22;35400;45.472;-122.822;2023-04-24T10:51:52;8.30;99.90
6375;DHT22;35400;45.472;-122.822;2023-04-24T10:54:36;8.30;99.90
6375;DHT22;35400;45.472;-122.822;2023-04-24T10:59:48;8.20;99.90
6375;DHT22;35400;45.472;-122.822;2023-04-24T11:02:16;8.20;99.90
6375;DHT22;35400;45.472;-122.822;2023-04-24T11:04:44;8.20;99.90
6375;DHT22;35400;45.472;-122.822;2023-04-24T11:07:11;8.10;99.90
6375;DHT22;35400;45.472;-122.822;2023-04-24T11:09:38;8.10;99.90
6375;DHT22;35400;45.472;-122.822;2023-04-24T11:12:12;8.00;99.90
6375;DHT22;35400;45.472;-122.822;2023-04-24T11:17:35;7.90;99.90
6375;DHT22;35400;45.472;-122.822;2023-04-24T11:20:07;7.90;99.90
6375;DHT22;35400;45.472;-122.822;2023-04-24T11:22:37;7.80;99.90
6375;DHT22;35400;45.472;-122.822;2023-04-24T11:25:07;7.80;99.90
6375;DHT22;35400;45.472;-122.822;2023-04-24T11:27:42;7.80;99.90
6375;DHT22;35400;45.472;-122.822;2023-04-24T11:30:10;7.80;99.90
6375;DHT22;35400;45.472;-122.822;2023-04-24T11:32:39;7.80;99.90
6375;DHT22;35400;45.472;-122.822;2023-04-24T11:35:17;7.80;99.90
6375;DHT22;35400;45.472;-122.822;2023-04-24T11:37:46;7.80;99.90
6375;DHT22;35400;45.472;-122.822;2023-04-24T11:40:16;7.80;99.90
6375;DHT22;35400;45.472;-122.822;2023-04-24T11:42:44;7.80;99.90
6375;DHT22;35400;45.472;-122.822;2023-04-24T11:45:17;7.70;99.90
6375;DHT22;35400;45.472;-122.822;2023-04-24T11:47:44;7.80;99.90
6375;DHT22;35400;45.472;-122.822;2023-04-24T11:50:13;7.80;99.90
6375;DHT22;35400;45.472;-122.822;2023-04-24T11:52:42;7.80;99.90
6375;DHT22;35400;45.472;-122.822;2023-04-24T11:55:29;7.70;99.90
6375;DHT22;35400;45.472;-122.822;2023-04-24T11:57:58;7.70;99.90
6375;DHT22;35400;45.472;-122.822;2023-04-24T12:00:28;7.70;99.90
6375;DHT22;35400;45.472;-122.822;2023-04-24T12:03:11;7.70;99.90
6375;DHT22;35400;45.472;-122.822;2023-04-24T12:05:39;7.70;99.90
6375;DHT22;35400;45.472;-122.822;2023-04-24T12:08:06;7.70;99.90
6375;DHT22;35400;45.472;-122.822;2023-04-24T12:10:33;7.70;99.90
6375;DHT22;35400;45.472;-122.822;2023-04-24T12:13:01;7.70;99.90
6375;DHT22;35400;45.472;-122.822;2023-04-24T12:15:28;7.70;99.90
6375;DHT22;35400;45.472;-122.822;2023-04-24T12:17:55;7.70;99.90
6375;DHT22;35400;45.472;-122.822;2023-04-24T12:20:27;7.70;99.90
6375;DHT22;35400;45.472;-122.822;2023-04-24T12:22:56;7.70;99.90
6375;DHT22;35400;45.472;-122.822;2023-04-24T12:25:25;7.70;99.90
6375;DHT22;35400;45.472;-122.822;2023-04-24T12:30:34;7.70;99.90
6375;DHT22;35400;45.472;-122.822;2023-04-24T12:33:02;7.70;99.90
6375;DHT22;35400;45.472;-122.822;2023-04-24T12:35:31;7.70;99.90
6375;DHT22;35400;45.472;-122.822;2023-04-24T12:38:10;7.70;99.90
6375;DHT22;35400;45.472;-122.822;2023-04-24T12:40:39;7.70;99.90
6375;DHT22;35400;45.472;-122.822;2023-04-24T12:43:18;7.80;99.90
6375;DHT22;35400;45.472;-122.822;2023-04-24T12:45:47;7.70;99.90
6375;DHT22;35400;45.472;-122.822;2023-04-24T12:48:14;7.80;99.90
6375;DHT22;35400;45.472;-122.822;2023-04-24T12:50:42;7.70;99.90
6375;DHT22;35400;45.472;-122.822;2023-04-24T12:53:09;7.80;99.90
6375;DHT22;35400;45.472;-122.822;2023-04-24T12:55:37;7.80;99.90
6375;DHT22;35400;45.472;-122.822;2023-04-24T12:58:03;7.80;99.90
6375;DHT22;35400;45.472;-122.822;2023-04-24T13:00:30;7.80;99.90
6375;DHT22;35400;45.472;-122.822;2023-04-24T13:02:57;7.80;99.90
6375;DHT22;35400;45.472;-122.822;2023-04-24T13:05:24;7.80;99.90
6375;DHT22;35400;45.472;-122.822;2023-04-24T13:07:51;7.80;99.90
6375;DHT22;35400;45.472;-122.822;2023-04-24T13:10:18;7.80;99.90
6375;DHT22;35400;45.472;-122.822;2023-04-24T13:12:45;7.80;99.90
6375;DHT22;35400;45.472;-122.822;2023-04-24T13:15:12;7.80;99.90
6375;DHT22;35400;45.472;-122.822;2023-04-24T13:17:39;7.80;99.90
6375;DHT22;35400;45.472;-122.822;2023-04-24T13:20:07;7.80;99.90
6375;DHT22;35400;45.472;-122.822;2023-04-24T13:22:33;7.80;99.90
6375;DHT22;35400;45.472;-122.822;2023-04-24T13:25:00;7.80;99.90
6375;DHT22;35400;45.472;-122.822;2023-04-24T13:27:27;7.80;99.90
6375;DHT22;35400;45.472;-122.822;2023-04-24T13:29:54;7.80;99.90
6375;DHT22;35400;45.472;-122.822;2023-04-24T13:32:21;7.80;99.90
6375;DHT22;35400;45.472;-122.822;2023-04-24T13:34:48;7.80;99.90
6375;DHT22;35400;45.472;-122.822;2023-04-24T13:37:15;7.80;99.90
6375;DHT22;35400;45.472;-122.822;2023-04-24T13:39:41;7.90;99.90
6375;DHT22;35400;45.472;-122.822;2023-04-24T13:42:08;7.90;99.90
6375;DHT22;35400;45.472;-122.822;2023-04-24T13:44:36;7.90;99.90
6375;DHT22;35400;45.472;-122.822;2023-04-24T13:47:02;7.90;99.90
6375;DHT22;35400;45.472;-122.822;2023-04-24T13:49:29;7.90;99.90
6375;DHT22;35400;45.472;-122.822;2023-04-24T13:51:56;7.90;99.90
6375;DHT22;35400;45.472;-122.822;2023-04-24T13:54:23;7.90;99.90
6375;DHT22;35400;45.472;-122.822;2023-04-24T13:56:52;8.00;99.90
6375;DHT22;35400;45.472;-122.822;2023-04-24T13:59:20;8.00;99.90
6375;DHT22;35400;45.472;-122.822;2023-04-24T14:01:47;8.00;99.90
6375;DHT22;35400;45.472;-122.822;2023-04-24T14:04:14;8.00;99.90
6375;DHT22;35400;45.472;-122.822;2023-04-24T14:06:41;8.10;99.90
6375;DHT22;35400;45.472;-122.822;2023-04-24T14:09:08;8.10;99.90
6375;DHT22;35400;45.472;-122.822;2023-04-24T14:11:35;8.20;99.90
6375;DHT22;35400;45.472;-122.822;2023-04-24T14:14:02;8.20;99.90
6375;DHT22;35400;45.472;-122.822;2023-04-24T14:16:29;8.30;99.90
6375;DHT22;35400;45.472;-122.822;2023-04-24T14:18:56;8.30;99.90
6375;DHT22;35400;45.472;-122.822;2023-04-24T14:21:23;8.40;99.90
6375;DHT22;35400;45.472;-122.822;2023-04-24T14:23:50;8.50;99.90
6375;DHT22;35400;45.472;-122.822;2023-04-24T14:26:17;8.50;99.90
6375;DHT22;35400;45.472;-122.822;2023-04-24T14:28:44;8.60;99.90
6375;DHT22;35400;45.472;-122.822;2023-04-24T14:31:10;8.60;99.90
6375;DHT22;35400;45.472;-122.822;2023-04-24T14:33:37;8.70;99.90
6375;DHT22;35400;45.472;-122.822;2023-04-24T14:36:04;8.70;99.90
6375;DHT22;35400;45.472;-122.822;2023-04-24T14:38:32;8.80;99.90
6375;DHT22;35400;45.472;-122.822;2023-04-24T14:40:58;8.90;99.90
6375;DHT22;35400;45.472;-122.822;2023-04-24T14:43:26;8.90;99.90
6375;DHT22;35400;45.472;-122.822;2023-04-24T14:45:55;9.00;99.90
6375;DHT22;35400;45.472;-122.822;2023-04-24T14:48:22;9.20;99.90
6375;DHT22;35400;45.472;-122.822;2023-04-24T14:50:49;9.40;99.90
6375;DHT22;35400;45.472;-122.822;2023-04-24T14:53:15;9.60;99.90
6375;DHT22;35400;45.472;-122.822;2023-04-24T14:55:42;9.80;99.90
6375;DHT22;35400;45.472;-122.822;2023-04-24T14:58:09;9.90;99.90
6375;DHT22;35400;45.472;-122.822;2023-04-24T15:00:36;10.00;99.90
6375;DHT22;35400;45.472;-122.822;2023-04-24T15:03:03;10.10;99.90
6375;DHT22;35400;45.472;-122.822;2023-04-24T15:05:30;10.20;99.90
6375;DHT22;35400;45.472;-122.822;2023-04-24T15:07:57;10.20;99.90
6375;DHT22;35400;45.472;-122.822;2023-04-24T15:10:24;10.20;99.90
6375;DHT22;35400;45.472;-122.822;2023-04-24T15:12:51;10.20;99.90
6375;DHT22;35400;45.472;-122.822;2023-04-24T15:15:18;10.30;99.90
6375;DHT22;35400;45.472;-122.822;2023-04-24T15:17:45;10.40;99.90
6375;DHT22;35400;45.472;-122.822;2023-04-24T15:20:12;10.60;99.90
6375;DHT22;35400;45.472;-122.822;2023-04-24T15:22:39;10.80;99.90
6375;DHT22;35400;45.472;-122.822;2023-04-24T15:25:06;11.10;99.90
6375;DHT22;35400;45.472;-122.822;2023-04-24T15:27:43;11.30;99.90